Terminal Aerodrome Forecast
Issued by NWS

Home | Current Version | Previous Version | Text Only | Print | Product List | Glossary On
Versions: 1 2 3 4 5 6 7 8 9 10 11 12 13 14 15 16 17 18 19 20 21 22 23 24
000
FTAK31 PANC 240927 AAA
TAFADU
TAF AMD
PADU 240927Z 2409/2506 VRB05KT P6SM VCSH SCT025 BKN035
      TEMPO 2409/2412 -SHRA BKN025
     FM241900 12020G30KT 5SM -RA BR BKN020
     FM242200 12024G36KT 3SM -RA BR OVC012
     FM250400 11010KT 6SM -RA BR SCT012 OVC020=

USA.gov is the U.S. government's official web portal to all federal, state and local government web resources and services.